Time;durP1;ratioP1;P1;durP2;ratioP2;P2;SDS_P1;SDS_P2;PMS_P1;PMS_P2;Temp;Humidity;BMP_temperature;BMP_pressure;BME280_temperature;BME280_humidity;BME280_pressure;Samples;Min_cycle;Max_cycle;Signal;HPM_P1;HPM_P2
2024/01/09 00:00:42;;;;;;;10.10;6.33;;;;;;;-6.54;100.00;101433.03;5032425;28;20566;-68
2024/01/09 00:03:07;;;;;;;12.87;6.80;;;;;;;-6.52;100.00;101436.47;5052694;28;20190;-63
2024/01/09 00:05:32;;;;;;;7.57;5.50;;;;;;;-6.53;100.00;101431.41;5033998;28;20196;-64
2024/01/09 00:07:57;;;;;;;10.93;6.57;;;;;;;-6.57;100.00;101427.94;5030603;28;20194;-64
2024/01/09 00:10:23;;;;;;;11.27;5.63;;;;;;;-6.60;100.00;101431.97;5059291;28;20698;-63
2024/01/09 00:12:48;;;;;;;10.50;6.33;;;;;;;-6.61;100.00;101427.75;5058019;28;20178;-64
2024/01/09 00:15:13;;;;;;;10.37;6.40;;;;;;;-6.61;100.00;101432.75;5031981;28;20166;-64
2024/01/09 00:17:41;;;;;;;7.70;5.73;;;;;;;-6.61;100.00;101425.25;5030905;28;20260;-63
2024/01/09 00:20:07;;;;;;;10.93;5.73;;;;;;;-6.60;100.00;101432.81;5021691;28;20174;-63
2024/01/09 00:22:32;;;;;;;13.53;6.63;;;;;;;-6.68;100.00;101430.03;5046083;28;20421;-63
2024/01/09 00:24:57;;;;;;;9.23;6.57;;;;;;;-6.64;100.00;101428.50;5030302;28;20477;-63
2024/01/09 00:27:22;;;;;;;12.90;7.23;;;;;;;-6.67;100.00;101431.75;5032015;28;20209;-64
2024/01/09 00:29:48;;;;;;;10.17;5.83;;;;;;;-6.65;100.00;101435.16;5030327;28;20652;-64
2024/01/09 00:32:13;;;;;;;8.53;5.67;;;;;;;-6.64;100.00;101431.00;5032506;28;20261;-63
2024/01/09 00:34:40;;;;;;;9.20;6.13;;;;;;;-6.58;100.00;101420.38;5031850;28;20186;-63
2024/01/09 00:37:06;;;;;;;10.33;5.67;;;;;;;-6.66;100.00;101422.56;5031332;28;20198;-63
2024/01/09 00:39:31;;;;;;;10.73;5.77;;;;;;;-6.62;100.00;101424.41;5034236;28;20409;-63
2024/01/09 00:41:56;;;;;;;9.33;5.93;;;;;;;-6.62;100.00;101426.91;5051728;28;20737;-63
2024/01/09 00:44:21;;;;;;;10.87;6.77;;;;;;;-6.59;100.00;101422.00;5032986;28;20182;-63
2024/01/09 00:46:47;;;;;;;6.10;4.47;;;;;;;-6.62;100.00;101431.03;5031665;28;20648;-62
2024/01/09 00:49:13;;;;;;;5.60;4.37;;;;;;;-6.61;100.00;101438.63;5032718;28;20198;-62
2024/01/09 00:51:38;;;;;;;10.87;6.23;;;;;;;-6.60;100.00;101429.47;5035401;28;20489;-62
2024/01/09 00:54:04;;;;;;;9.60;4.93;;;;;;;-6.63;100.00;101427.69;5033599;28;20186;-63
2024/01/09 00:56:29;;;;;;;9.93;6.10;;;;;;;-6.57;100.00;101424.56;5031718;28;20232;-63
2024/01/09 00:58:54;;;;;;;11.57;6.93;;;;;;;-6.61;100.00;101430.25;5029807;28;20247;-63
2024/01/09 01:01:19;;;;;;;10.83;6.03;;;;;;;-6.61;100.00;101430.25;5041907;28;20228;-62
2024/01/09 01:03:45;;;;;;;10.13;6.20;;;;;;;-6.62;100.00;101431.03;5046809;28;20607;-62
2024/01/09 01:06:10;;;;;;;6.93;4.80;;;;;;;-6.63;100.00;101427.69;5035059;28;20194;-62
2024/01/09 01:08:37;;;;;;;8.63;5.70;;;;;;;-6.61;100.00;101425.25;5031158;28;20240;-63
2024/01/09 01:11:02;;;;;;;9.37;6.30;;;;;;;-6.63;100.00;101427.69;5037077;28;20353;-62
2024/01/09 01:13:28;;;;;;;10.43;5.70;;;;;;;-6.61;100.00;101438.63;5046575;28;20416;-63
2024/01/09 01:15:53;;;;;;;6.60;5.33;;;;;;;-6.62;100.00;101428.53;5031686;28;20304;-63
2024/01/09 01:18:18;;;;;;;7.70;5.20;;;;;;;-6.63;100.00;101431.88;5027487;28;20690;-63
2024/01/09 01:20:44;;;;;;;8.73;5.60;;;;;;;-6.57;100.00;101434.56;5046574;28;20660;-63
2024/01/09 01:23:09;;;;;;;11.13;5.57;;;;;;;-6.68;100.00;101439.19;5039259;28;20215;-63
2024/01/09 01:25:34;;;;;;;7.53;5.70;;;;;;;-6.61;100.00;101438.63;5031423;28;20180;-62
2024/01/09 01:27:59;;;;;;;8.23;5.00;;;;;;;-6.62;100.00;101436.91;5031128;28;20288;-63
2024/01/09 01:30:25;;;;;;;8.87;5.50;;;;;;;-6.63;100.00;101441.88;5026990;28;20221;-62
2024/01/09 01:32:50;;;;;;;10.13;5.67;;;;;;;-6.60;100.00;101440.31;5046183;28;20255;-63
2024/01/09 01:35:15;;;;;;;9.20;5.50;;;;;;;-6.61;100.00;101445.28;5035355;28;20552;-62
2024/01/09 01:37:41;;;;;;;10.60;6.80;;;;;;;-6.60;100.00;101445.31;5035403;28;20185;-62
2024/01/09 01:40:07;;;;;;;9.17;5.50;;;;;;;-6.60;100.00;101440.31;5023892;28;20182;-62
2024/01/09 01:42:32;;;;;;;9.20;5.27;;;;;;;-6.59;100.00;101446.19;5065549;28;20343;-63
2024/01/09 01:44:58;;;;;;;7.97;5.30;;;;;;;-6.57;100.00;101449.59;5033492;28;20225;-62
2024/01/09 01:47:23;;;;;;;10.47;5.37;;;;;;;-6.57;100.00;101450.47;5035170;28;20295;-63
2024/01/09 01:49:49;;;;;;;7.80;5.13;;;;;;;-6.58;100.00;101447.91;5030204;28;20179;-62
2024/01/09 01:52:14;;;;;;;8.53;5.37;;;;;;;-6.56;100.00;101441.28;5051120;28;20221;-63
2024/01/09 01:54:41;;;;;;;7.30;4.03;;;;;;;-6.55;100.00;101448.00;5035020;28;20177;-62
2024/01/09 01:57:08;;;;;;;10.03;6.03;;;;;;;-6.57;100.00;101449.59;5034482;28;20182;-62
2024/01/09 01:59:38;;;;;;;10.83;5.33;;;;;;;-6.61;100.00;101443.63;5066749;28;20740;-63
2024/01/09 02:02:05;;;;;;;7.43;4.23;;;;;;;-6.59;100.00;101434.53;5042093;28;20562;-63
2024/01/09 02:04:32;;;;;;;8.43;4.63;;;;;;;-6.60;100.00;101435.31;5033525;28;20482;-62
2024/01/09 02:06:58;;;;;;;9.23;5.73;;;;;;;-6.63;100.00;101432.72;5032824;28;21056;-62
2024/01/09 02:09:23;;;;;;;8.20;6.20;;;;;;;-6.69;100.00;101430.81;5033479;28;20409;-63
2024/01/09 02:11:49;;;;;;;8.47;5.43;;;;;;;-6.63;100.00;101431.88;5040126;28;20253;-63
2024/01/09 02:14:15;;;;;;;7.50;5.30;;;;;;;-6.67;100.00;101438.41;5035153;28;20174;-62
2024/01/09 02:16:41;;;;;;;6.93;4.67;;;;;;;-6.67;100.00;101430.91;5066412;28;20190;-62
2024/01/09 02:19:06;;;;;;;10.43;5.03;;;;;;;-6.69;100.00;101430.81;5032865;28;20205;-62
2024/01/09 02:21:33;;;;;;;10.87;5.93;;;;;;;-6.68;100.00;101430.03;5037791;28;20263;-62
2024/01/09 02:23:58;;;;;;;8.27;5.30;;;;;;;-6.67;100.00;101428.41;5042112;28;20526;-63
2024/01/09 02:26:31;;;;;;;7.20;5.27;;;;;;;-6.69;100.00;101425.81;5032791;28;20515;-62
2024/01/09 02:29:04;;;;;;;9.30;6.23;;;;;;;-6.72;100.00;101427.34;5034174;28;20238;-62
2024/01/09 02:31:30;;;;;;;9.57;5.40;;;;;;;-6.69;100.00;101423.31;5037112;28;21020;-63
2024/01/09 02:33:57;;;;;;;8.60;5.43;;;;;;;-6.73;100.00;101428.16;5037300;28;20500;-63
2024/01/09 02:36:23;;;;;;;8.80;5.50;;;;;;;-6.70;100.00;101431.63;5034004;28;20216;-63
2024/01/09 02:38:48;;;;;;;9.23;5.90;;;;;;;-6.72;100.00;101417.31;5033718;28;20417;-64
2024/01/09 02:41:13;;;;;;;11.37;6.63;;;;;;;-6.77;100.00;101424.69;5057513;28;20232;-63
2024/01/09 02:43:38;;;;;;;11.37;6.40;;;;;;;-6.76;100.00;101420.53;5038549;28;20324;-64
2024/01/09 02:46:04;;;;;;;6.50;4.77;;;;;;;-6.75;100.00;101418.06;5032321;28;20217;-63
2024/01/09 02:48:29;;;;;;;6.60;4.90;;;;;;;-6.75;100.00;101418.06;5033733;28;20209;-62
2024/01/09 02:50:54;;;;;;;10.47;5.07;;;;;;;-6.78;100.00;101420.47;5025929;28;20411;-62
2024/01/09 02:53:19;;;;;;;5.93;4.47;;;;;;;-6.77;100.00;101417.19;5041353;28;20192;-63
2024/01/09 02:55:45;;;;;;;10.03;5.23;;;;;;;-6.78;100.00;101417.09;5033516;28;20186;-62
2024/01/09 02:58:10;;;;;;;10.80;5.43;;;;;;;-6.71;100.00;101414.91;5032602;28;20245;-63
2024/01/09 03:00:35;;;;;;;8.07;5.10;;;;;;;-6.73;100.00;101413.97;5032288;28;20223;-63
2024/01/09 03:03:01;;;;;;;7.87;5.17;;;;;;;-6.79;100.00;101416.25;5056180;28;20192;-63
2024/01/09 03:05:26;;;;;;;6.93;5.40;;;;;;;-6.74;100.00;101413.94;5048628;28;20188;-62
2024/01/09 03:07:51;;;;;;;10.73;5.80;;;;;;;-6.71;100.00;101419.03;5065325;28;20220;-62
2024/01/09 03:10:17;;;;;;;9.43;5.40;;;;;;;-6.78;100.00;101407.97;5027012;28;20185;-62
2024/01/09 03:12:42;;;;;;;10.20;5.87;;;;;;;-6.78;100.00;101415.47;5046175;28;20558;-63
2024/01/09 03:15:09;;;;;;;7.97;5.20;;;;;;;-6.76;100.00;101408.88;5033504;28;20185;-62
2024/01/09 03:17:34;;;;;;;8.93;5.30;;;;;;;-6.74;100.00;101408.94;5032153;28;20182;-62
2024/01/09 03:19:59;;;;;;;9.53;5.97;;;;;;;-6.75;100.00;101410.56;5033183;28;20443;-63
2024/01/09 03:22:24;;;;;;;6.60;5.07;;;;;;;-6.73;100.00;101413.16;5054694;28;20235;-62
2024/01/09 03:24:50;;;;;;;9.93;4.83;;;;;;;-6.73;100.00;101403.13;5032750;28;20189;-62
2024/01/09 03:27:15;;;;;;;8.73;5.23;;;;;;;-6.68;100.00;101412.50;5033263;28;20196;-62
2024/01/09 03:29:40;;;;;;;9.67;5.37;;;;;;;-6.76;100.00;101406.38;5065011;28;20185;-62
2024/01/09 03:32:06;;;;;;;8.70;5.30;;;;;;;-6.73;100.00;101403.13;5054715;28;20216;-63
2024/01/09 03:34:31;;;;;;;7.90;5.23;;;;;;;-6.71;100.00;101406.53;5064665;28;20188;-63
2024/01/09 03:36:57;;;;;;;8.10;5.53;;;;;;;-6.71;100.00;101404.91;5031435;28;20181;-62
2024/01/09 03:39:22;;;;;;;8.17;5.00;;;;;;;-6.75;100.00;101393.03;5032949;28;20182;-63
2024/01/09 03:41:47;;;;;;;7.50;4.80;;;;;;;-6.75;100.00;101395.56;5038421;28;20714;-62
2024/01/09 03:44:12;;;;;;;9.00;5.53;;;;;;;-6.75;100.00;101394.72;5033250;28;20189;-62
2024/01/09 03:46:38;;;;;;;10.40;5.87;;;;;;;-6.74;100.00;101393.91;5032912;28;20222;-62
2024/01/09 03:49:03;;;;;;;10.60;5.10;;;;;;;-6.79;100.00;101393.75;5035921;28;20201;-64
2024/01/09 03:51:29;;;;;;;8.43;5.03;;;;;;;-6.83;100.00;101392.78;5032781;28;20372;-63
2024/01/09 03:53:54;;;;;;;9.20;5.57;;;;;;;-6.83;100.00;101386.91;5040798;28;20663;-63
2024/01/09 03:56:20;;;;;;;9.17;5.30;;;;;;;-6.82;100.00;101386.97;5032852;28;20193;-62
2024/01/09 03:58:45;;;;;;;8.27;4.60;;;;;;;-6.77;100.00;101391.28;5032627;28;20178;-62
2024/01/09 04:01:10;;;;;;;8.00;4.30;;;;;;;-6.83;100.00;101389.44;5057032;28;20239;-62
2024/01/09 04:03:36;;;;;;;7.47;5.00;;;;;;;-6.79;100.00;101387.91;5029425;28;20710;-62
2024/01/09 04:06:02;;;;;;;8.43;5.50;;;;;;;-6.82;100.00;101398.66;5038301;28;20169;-63
2024/01/09 04:08:27;;;;;;;9.17;5.70;;;;;;;-6.86;100.00;101399.31;5030655;28;20698;-63
2024/01/09 04:10:53;;;;;;;9.13;5.73;;;;;;;-6.79;100.00;101397.91;5030789;28;20474;-63
2024/01/09 04:13:19;;;;;;;6.70;4.23;;;;;;;-6.91;100.00;101394.13;5040263;28;20181;-64
2024/01/09 04:15:44;;;;;;;10.03;5.23;;;;;;;-6.94;100.00;101390.69;5030852;28;20188;-62
2024/01/09 04:18:09;;;;;;;8.17;5.10;;;;;;;-6.90;100.00;101398.34;5031926;28;20441;-62
2024/01/09 04:20:35;;;;;;;9.60;5.47;;;;;;;-6.87;100.00;101400.09;5028107;28;20293;-62
2024/01/09 04:23:00;;;;;;;8.50;5.10;;;;;;;-6.89;100.00;101395.03;5041871;28;20573;-63
2024/01/09 04:25:25;;;;;;;8.47;5.20;;;;;;;-6.92;100.00;101391.56;5063938;28;20252;-63
2024/01/09 04:27:51;;;;;;;7.73;4.93;;;;;;;-6.86;100.00;101382.66;5030438;28;20206;-62
2024/01/09 04:30:16;;;;;;;9.80;4.70;;;;;;;-6.83;100.00;101397.78;5004916;28;20185;-63
2024/01/09 04:32:41;;;;;;;6.53;4.37;;;;;;;-6.86;100.00;101387.66;5049720;28;20215;-63
2024/01/09 04:35:07;;;;;;;7.43;4.60;;;;;;;-6.93;100.00;101388.22;5031697;28;20182;-63
2024/01/09 04:37:32;;;;;;;9.40;5.80;;;;;;;-6.94;100.00;101389.00;5031945;28;20518;-63
2024/01/09 04:39:57;;;;;;;8.97;5.70;;;;;;;-6.94;100.00;101395.69;5031683;28;21093;-62
2024/01/09 04:42:22;;;;;;;8.80;5.70;;;;;;;-6.94;100.00;101399.03;5053152;28;20232;-63
2024/01/09 04:44:48;;;;;;;7.17;5.10;;;;;;;-6.94;100.00;101393.19;5029929;28;20241;-62
2024/01/09 04:47:15;;;;;;;8.77;5.53;;;;;;;-6.91;100.00;101389.13;5031660;28;20238;-63
2024/01/09 04:49:44;;;;;;;7.47;5.30;;;;;;;-6.95;100.00;101392.31;5030790;28;20265;-63
2024/01/09 04:52:10;;;;;;;8.00;5.13;;;;;;;-6.98;100.00;101388.03;5046799;28;20480;-62
2024/01/09 04:54:35;;;;;;;12.73;5.50;;;;;;;-7.00;100.00;101392.13;5043052;28;20426;-63
2024/01/09 04:57:01;;;;;;;8.30;5.27;;;;;;;-6.99;100.00;101393.00;5056589;28;20177;-63
2024/01/09 04:59:26;;;;;;;7.17;4.77;;;;;;;-6.97;100.00;101387.25;5031203;28;20190;-63
2024/01/09 05:01:51;;;;;;;8.40;5.17;;;;;;;-7.01;100.00;101390.44;5049807;28;20229;-62
2024/01/09 05:04:16;;;;;;;11.37;5.23;;;;;;;-6.98;100.00;101387.19;5033992;28;20209;-62
2024/01/09 05:06:42;;;;;;;8.00;5.03;;;;;;;-7.02;100.00;101387.84;5030400;28;20189;-67
2024/01/09 05:09:07;;;;;;;9.40;5.40;;;;;;;-6.98;100.00;101388.03;5031296;28;20205;-62
2024/01/09 05:11:32;;;;;;;8.70;5.33;;;;;;;-7.03;100.00;101392.03;5035265;28;20239;-62
2024/01/09 05:13:58;;;;;;;6.70;4.77;;;;;;;-7.02;100.00;101390.38;5034068;28;20181;-62
2024/01/09 05:16:24;;;;;;;10.10;5.70;;;;;;;-6.99;100.00;101393.00;5031276;28;20565;-63
2024/01/09 05:18:49;;;;;;;7.07;5.13;;;;;;;-6.99;100.00;101393.84;5030962;28;20184;-63
2024/01/09 05:21:15;;;;;;;9.97;5.20;;;;;;;-7.03;100.00;101388.66;5040541;28;20483;-63
2024/01/09 05:23:40;;;;;;;8.53;5.10;;;;;;;-6.98;100.00;101383.03;5043556;28;20265;-63
2024/01/09 05:26:06;;;;;;;6.50;4.53;;;;;;;-7.06;100.00;101386.88;5031622;28;20178;-63
2024/01/09 05:28:31;;;;;;;9.30;4.70;;;;;;;-7.11;100.00;101385.03;5029447;28;20196;-63
2024/01/09 05:30:56;;;;;;;6.50;4.37;;;;;;;-7.03;100.00;101383.66;5035497;28;20266;-63
2024/01/09 05:33:22;;;;;;;10.43;5.40;;;;;;;-6.94;100.00;101384.00;5047782;28;20277;-63
2024/01/09 05:35:47;;;;;;;10.23;4.93;;;;;;;-6.98;100.00;101387.19;5030981;28;20656;-63
2024/01/09 05:38:12;;;;;;;8.47;4.97;;;;;;;-7.15;100.00;101387.38;5030990;28;20217;-62
2024/01/09 05:40:38;;;;;;;7.13;5.07;;;;;;;-7.08;100.00;101388.50;5030746;28;20316;-63
2024/01/09 05:43:04;;;;;;;8.23;5.03;;;;;;;-7.13;100.00;101387.47;5040364;28;20289;-63
2024/01/09 05:45:29;;;;;;;7.60;4.63;;;;;;;-7.17;100.00;101396.50;5031177;28;20939;-64
2024/01/09 05:47:54;;;;;;;7.90;5.00;;;;;;;-7.12;100.00;101394.16;5030985;28;20608;-64
2024/01/09 05:50:19;;;;;;;7.20;4.70;;;;;;;-7.18;100.00;101398.91;5028636;28;20193;-62
2024/01/09 05:52:44;;;;;;;7.53;4.63;;;;;;;-7.20;100.00;101396.38;5042448;28;20270;-63
2024/01/09 05:55:10;;;;;;;6.10;4.40;;;;;;;-7.20;100.00;101393.88;5031141;28;20178;-62
2024/01/09 05:57:35;;;;;;;8.30;4.90;;;;;;;-7.24;100.00;101397.06;5029543;28;20189;-62
2024/01/09 06:00:00;;;;;;;12.53;6.53;;;;;;;-7.19;100.00;101395.56;5030876;28;20196;-63
2024/01/09 06:02:26;;;;;;;9.93;5.53;;;;;;;-7.15;100.00;101396.56;5034616;28;20546;-63
2024/01/09 06:04:52;;;;;;;11.33;5.57;;;;;;;-7.11;100.00;101400.88;5030450;28;20233;-63
2024/01/09 06:07:17;;;;;;;11.43;5.90;;;;;;;-7.23;100.00;101390.38;5030044;28;20625;-63
2024/01/09 06:09:43;;;;;;;8.73;5.53;;;;;;;-7.21;100.00;101398.81;5031069;28;20255;-63
2024/01/09 06:12:09;;;;;;;11.23;6.20;;;;;;;-7.23;100.00;101401.25;5051897;28;20228;-64
2024/01/09 06:14:34;;;;;;;10.87;4.57;;;;;;;-7.19;100.00;101398.06;5062840;28;20437;-62
2024/01/09 06:16:59;;;;;;;8.40;5.57;;;;;;;-7.21;100.00;101392.16;5030700;28;20240;-63
2024/01/09 06:19:25;;;;;;;11.00;5.93;;;;;;;-7.20;100.00;101388.88;5033034;28;20542;-62
2024/01/09 06:21:50;;;;;;;11.80;5.80;;;;;;;-7.09;100.00;101395.91;5050338;28;20223;-62
2024/01/09 06:24:15;;;;;;;7.73;5.37;;;;;;;-7.16;100.00;101392.34;5034539;28;20255;-62
2024/01/09 06:26:41;;;;;;;6.40;4.87;;;;;;;-7.09;100.00;101389.28;5065969;28;20200;-62
2024/01/09 06:29:06;;;;;;;7.47;4.73;;;;;;;-7.03;100.00;101393.66;5032282;28;20217;-63
2024/01/09 06:31:32;;;;;;;8.90;5.20;;;;;;;-7.05;100.00;101392.75;5041437;28;20225;-63
2024/01/09 06:33:57;;;;;;;11.53;5.10;;;;;;;-7.05;100.00;101406.09;5028732;28;20178;-63
2024/01/09 06:36:23;;;;;;;7.93;4.70;;;;;;;-7.02;100.00;101401.25;5033542;28;20189;-63
2024/01/09 06:38:48;;;;;;;6.80;4.03;;;;;;;-6.97;100.00;101398.88;5032161;28;20193;-64
2024/01/09 06:41:13;;;;;;;8.40;4.40;;;;;;;-7.02;100.00;101403.75;5042459;28;20265;-64
2024/01/09 06:43:39;;;;;;;6.73;4.53;;;;;;;-7.00;100.00;101406.28;5046589;28;20210;-63
2024/01/09 06:46:04;;;;;;;8.80;5.37;;;;;;;-7.02;100.00;101407.88;5065117;28;20216;-63
2024/01/09 06:48:29;;;;;;;7.70;4.30;;;;;;;-7.01;100.00;101414.59;5034966;28;20243;-62
2024/01/09 06:50:54;;;;;;;10.93;5.07;;;;;;;-7.00;100.00;101414.63;5034036;28;20572;-63
2024/01/09 06:53:20;;;;;;;7.13;4.40;;;;;;;-6.93;100.00;101400.72;5051119;28;20186;-62
2024/01/09 06:55:45;;;;;;;8.37;5.13;;;;;;;-6.99;100.00;101413.00;5031918;28;20205;-63
2024/01/09 06:58:12;;;;;;;8.77;4.83;;;;;;;-7.00;100.00;101412.13;5065638;28;20185;-63
2024/01/09 07:00:37;;;;;;;9.33;5.23;;;;;;;-6.97;100.00;101409.75;5032453;28;20678;-63
2024/01/09 07:03:03;;;;;;;6.57;4.63;;;;;;;-6.87;100.00;101413.47;5055160;28;20408;-63
2024/01/09 07:05:28;;;;;;;4.83;3.50;;;;;;;-6.90;100.00;101417.50;5032873;28;20252;-63
2024/01/09 07:07:54;;;;;;;8.97;4.63;;;;;;;-6.89;100.00;101425.06;5033648;28;20511;-66
2024/01/09 07:10:19;;;;;;;9.30;5.03;;;;;;;-6.86;100.00;101416.81;5026310;28;20257;-64
2024/01/09 07:12:44;;;;;;;7.63;4.30;;;;;;;-6.87;99.12;101418.47;5045338;28;20190;-66
2024/01/09 07:15:13;;;;;;;7.07;4.60;;;;;;;-6.77;99.12;101421.31;5033113;28;20312;-64
2024/01/09 07:17:39;;;;;;;8.37;4.50;;;;;;;-6.68;98.06;101429.19;5031861;28;20542;-64
2024/01/09 07:20:05;;;;;;;11.80;4.63;;;;;;;-6.72;97.28;101429.84;5021763;28;20432;-65
2024/01/09 07:22:30;;;;;;;5.13;4.03;;;;;;;-6.71;96.83;101427.41;5063496;28;20499;-62
2024/01/09 07:24:55;;;;;;;6.80;4.73;;;;;;;-6.72;97.30;101427.34;5032725;28;20431;-65
2024/01/09 07:27:21;;;;;;;6.43;4.30;;;;;;;-6.70;97.61;101425.75;5032876;28;20202;-64
2024/01/09 07:29:46;;;;;;;10.80;5.87;;;;;;;-6.60;97.27;101426.97;5030562;28;20178;-62
2024/01/09 07:32:11;;;;;;;6.30;4.37;;;;;;;-6.72;96.92;101430.72;5039692;28;20343;-64
2024/01/09 07:34:36;;;;;;;6.87;4.30;;;;;;;-6.71;97.82;101432.44;5032599;28;20177;-64
2024/01/09 07:37:02;;;;;;;7.40;4.40;;;;;;;-6.69;97.62;101433.31;5032447;28;20265;-62
2024/01/09 07:39:27;;;;;;;8.07;4.63;;;;;;;-6.54;97.68;101433.03;5032409;28;20178;-66
2024/01/09 07:41:52;;;;;;;6.37;4.23;;;;;;;-6.58;97.63;101433.72;5038863;28;20255;-63
2024/01/09 07:44:19;;;;;;;5.70;3.57;;;;;;;-6.62;96.98;101443.56;5032482;28;20182;-65
2024/01/09 07:46:45;;;;;;;12.17;4.70;;;;;;;-6.57;96.61;101439.56;5030792;28;20240;-63
2024/01/09 07:49:10;;;;;;;6.50;4.40;;;;;;;-6.55;96.58;101443.88;5035741;28;20471;-64
2024/01/09 07:51:35;;;;;;;6.93;4.23;;;;;;;-6.48;96.71;101442.44;5036500;28;20228;-64
2024/01/09 07:54:01;;;;;;;7.93;4.53;;;;;;;-6.52;95.61;101436.47;5040031;28;20240;-68
2024/01/09 07:56:26;;;;;;;9.50;4.27;;;;;;;-6.45;96.39;101440.03;5031082;28;20280;-61
2024/01/09 07:58:51;;;;;;;10.40;5.13;;;;;;;-6.43;95.60;101440.94;5030525;28;20251;-63
2024/01/09 08:01:17;;;;;;;9.53;4.83;;;;;;;-6.10;100.00;101434.59;5041920;28;20220;-62
2024/01/09 08:03:42;;;;;;;6.77;4.03;;;;;;;-6.18;93.84;101431.81;5043403;28;20228;-62
2024/01/09 08:06:12;;;;;;;7.13;4.00;;;;;;;-6.24;91.66;101434.09;5031857;28;20244;-62
2024/01/09 08:08:38;;;;;;;5.63;4.13;;;;;;;-6.27;92.08;101434.84;5030940;28;20206;-62
2024/01/09 08:11:04;;;;;;;6.97;4.57;;;;;;;-6.30;91.71;101433.88;5037936;28;20474;-63
2024/01/09 08:13:30;;;;;;;5.23;3.93;;;;;;;-6.26;92.12;101435.69;5038411;28;20203;-63
2024/01/09 08:15:55;;;;;;;6.27;3.87;;;;;;;-6.25;91.07;101440.78;5031651;28;20927;-62
2024/01/09 08:18:20;;;;;;;7.13;4.80;;;;;;;-6.22;90.35;101438.38;5031943;28;20244;-61
2024/01/09 08:20:46;;;;;;;6.80;3.70;;;;;;;-6.17;89.33;101436.03;5032234;28;21637;-61
2024/01/09 08:23:11;;;;;;;4.53;3.57;;;;;;;-6.17;89.08;101439.38;5040795;28;20240;-62
2024/01/09 08:25:36;;;;;;;6.23;4.13;;;;;;;-6.10;89.42;101442.97;5031910;28;20261;-62
2024/01/09 08:28:01;;;;;;;7.33;4.40;;;;;;;-6.07;89.19;101438.06;5031521;28;20197;-63
2024/01/09 08:30:27;;;;;;;5.03;3.50;;;;;;;-6.04;88.13;101439.81;5007904;28;20221;-63
2024/01/09 08:32:52;;;;;;;6.23;4.03;;;;;;;-5.88;88.35;101444.53;5053818;28;20223;-62
2024/01/09 08:35:17;;;;;;;5.37;4.10;;;;;;;-5.81;85.59;101443.09;5030188;28;20170;-63
2024/01/09 08:37:42;;;;;;;7.67;4.30;;;;;;;-5.75;84.88;101439.94;5030296;28;20732;-63
2024/01/09 08:40:09;;;;;;;7.73;4.80;;;;;;;-5.81;84.13;101437.22;5022825;28;20178;-63
2024/01/09 08:42:34;;;;;;;5.73;3.60;;;;;;;-5.81;83.07;101435.56;5060518;28;20279;-63
2024/01/09 08:44:59;;;;;;;6.00;3.30;;;;;;;-5.75;82.63;101437.44;5030766;28;20959;-63
2024/01/09 08:47:25;;;;;;;7.00;4.70;;;;;;;-5.64;82.79;101427.75;5031393;28;20210;-64
2024/01/09 08:49:51;;;;;;;6.67;4.70;;;;;;;-5.60;80.91;101440.44;5032415;28;20178;-61
2024/01/09 08:52:21;;;;;;;7.80;4.00;;;;;;;-5.57;80.51;101437.19;5037507;28;20240;-64
2024/01/09 08:54:47;;;;;;;5.60;3.63;;;;;;;-5.51;78.94;101433.25;5029871;28;20181;-62
2024/01/09 08:57:12;;;;;;;6.47;4.10;;;;;;;-5.43;78.86;101432.63;5031311;28;20929;-62
2024/01/09 08:59:37;;;;;;;6.17;4.40;;;;;;;-5.29;76.26;101438.94;5031196;28;20178;-63
2024/01/09 09:02:02;;;;;;;6.27;3.70;;;;;;;-5.14;73.96;101435.22;5052698;28;20554;-65
2024/01/09 09:04:28;;;;;;;8.13;4.40;;;;;;;-5.04;72.52;101437.22;5029257;28;20217;-62
2024/01/09 09:06:53;;;;;;;7.63;4.23;;;;;;;-4.96;72.00;101434.94;5031314;28;20546;-62
2024/01/09 09:09:19;;;;;;;6.07;4.30;;;;;;;-4.64;69.88;101430.91;5029730;28;20217;-64
2024/01/09 09:11:44;;;;;;;6.30;4.23;;;;;;;-3.97;65.79;101423.53;5047491;28;20220;-63
2024/01/09 09:14:09;;;;;;;8.27;4.33;;;;;;;-3.09;61.86;101420.66;5035996;28;20657;-64
2024/01/09 09:16:36;;;;;;;5.30;4.00;;;;;;;-1.84;56.17;101424.00;5031026;28;20261;-63
2024/01/09 09:19:02;;;;;;;8.60;4.37;;;;;;;-1.47;53.04;101419.59;5061302;28;20217;-64
2024/01/09 09:21:27;;;;;;;5.83;4.30;;;;;;;-1.37;51.62;101423.94;5022024;28;20224;-63
2024/01/09 09:23:53;;;;;;;6.77;4.53;;;;;;;-0.84;49.53;101414.66;5039822;28;20198;-63
2024/01/09 09:26:18;;;;;;;5.67;4.57;;;;;;;-0.58;48.82;101417.50;5030855;28;20187;-64
2024/01/09 09:28:47;;;;;;;6.87;4.97;;;;;;;-0.38;48.42;101416.91;5029391;28;20331;-64
2024/01/09 09:31:12;;;;;;;5.27;4.23;;;;;;;-0.46;47.01;101424.38;5028678;28;20306;-64
2024/01/09 09:33:37;;;;;;;6.97;4.30;;;;;;;-0.23;46.72;101412.00;5033467;28;20178;-63
2024/01/09 09:36:05;;;;;;;6.57;4.57;;;;;;;-0.38;45.45;101414.38;5063508;28;20667;-63
2024/01/09 09:38:30;;;;;;;5.07;4.53;;;;;;;-0.30;46.23;101420.34;5030741;28;20289;-63
2024/01/09 09:40:57;;;;;;;5.23;4.10;;;;;;;0.10;44.82;101418.28;5029584;28;20306;-63
2024/01/09 09:43:26;;;;;;;4.77;4.00;;;;;;;-0.39;43.96;101418.56;5047380;28;20292;-63
2024/01/09 09:45:56;;;;;;;5.70;4.03;;;;;;;-0.46;44.56;101421.84;5029318;28;20226;-63
2024/01/09 09:48:23;;;;;;;7.50;4.57;;;;;;;-0.11;44.20;101420.56;5029537;28;20630;-63
2024/01/09 09:50:52;;;;;;;6.87;3.87;;;;;;;-0.43;44.13;101411.78;5043095;28;20241;-64
2024/01/09 09:53:18;;;;;;;5.40;3.50;;;;;;;-0.20;44.36;101419.66;5030612;28;20184;-62
2024/01/09 09:55:45;;;;;;;6.67;4.30;;;;;;;0.85;42.32;101412.13;5034420;28;20265;-64
2024/01/09 09:58:11;;;;;;;5.27;4.27;;;;;;;-0.13;42.95;101402.84;5034835;28;20178;-63
2024/01/09 10:00:36;;;;;;;6.53;4.40;;;;;;;0.43;43.17;101419.41;5032852;28;20244;-62
2024/01/09 10:03:08;;;;;;;5.20;3.73;;;;;;;0.24;42.65;101413.34;5044479;28;20223;-63
2024/01/09 10:05:38;;;;;;;5.97;4.30;;;;;;;-0.71;42.55;101408.94;5033100;28;20583;-64
2024/01/09 10:08:07;;;;;;;8.30;5.83;;;;;;;-0.36;43.76;101405.13;5033689;28;20202;-63
2024/01/09 10:10:33;;;;;;;6.87;5.00;;;;;;;-0.26;43.60;101401.88;5029946;28;20223;-63
2024/01/09 10:12:59;;;;;;;6.80;4.20;;;;;;;-0.49;43.45;101402.44;5044188;28;20179;-63
2024/01/09 10:15:25;;;;;;;5.53;4.33;;;;;;;-1.36;43.89;101417.25;5033256;28;20563;-63
2024/01/09 10:17:51;;;;;;;6.27;4.93;;;;;;;-1.81;46.69;101411.44;5032660;28;20210;-63
2024/01/09 10:20:17;;;;;;;7.53;4.43;;;;;;;-2.50;46.87;101426.94;5027182;28;20544;-63
2024/01/09 10:22:42;;;;;;;6.03;4.50;;;;;;;-2.95;48.40;101408.38;5046509;28;20195;-64
2024/01/09 10:25:10;;;;;;;5.47;3.93;;;;;;;-3.18;49.18;101405.31;5034316;28;20197;-63
2024/01/09 10:27:37;;;;;;;7.80;4.00;;;;;;;-3.18;49.57;101405.31;5033889;28;20229;-65
2024/01/09 10:30:09;;;;;;;5.97;3.97;;;;;;;-3.13;49.55;101391.19;5064452;28;20184;-63
2024/01/09 10:32:36;;;;;;;6.73;3.80;;;;;;;-3.13;49.63;101397.88;5047839;28;20198;-62
2024/01/09 10:35:07;;;;;;;6.73;4.53;;;;;;;-3.11;49.87;101393.75;5065147;28;20319;-62
2024/01/09 10:37:34;;;;;;;3.87;3.37;;;;;;;-3.11;49.86;101379.47;5033941;28;20672;-61
2024/01/09 10:39:59;;;;;;;5.90;3.43;;;;;;;-3.06;49.54;101384.63;5032333;28;20180;-62
2024/01/09 10:42:26;;;;;;;5.47;3.70;;;;;;;-3.00;49.13;101389.81;5054708;28;20259;-62
2024/01/09 10:44:51;;;;;;;5.30;3.07;;;;;;;-2.97;48.62;101382.31;5031807;28;20736;-62
2024/01/09 10:47:18;;;;;;;8.67;4.67;;;;;;;-2.94;48.29;101389.06;5033610;28;20181;-62
2024/01/09 10:49:45;;;;;;;6.30;3.43;;;;;;;-2.88;48.44;101385.84;5031228;28;20189;-61
2024/01/09 10:52:16;;;;;;;5.73;4.03;;;;;;;-2.83;47.89;101364.13;5049192;28;20221;-63
2024/01/09 10:54:43;;;;;;;4.23;3.40;;;;;;;-2.85;47.51;101368.28;5019969;28;20204;-62
2024/01/09 10:57:16;;;;;;;3.80;2.80;;;;;;;-2.82;47.47;101370.88;5032151;28;20203;-61
2024/01/09 10:59:43;;;;;;;7.10;3.57;;;;;;;-2.75;47.86;101372.69;5031853;28;20209;-61
2024/01/09 11:02:13;;;;;;;6.17;3.90;;;;;;;-2.59;48.02;101376.38;5040158;28;20244;-62
2024/01/09 11:04:39;;;;;;;5.13;3.53;;;;;;;-2.48;47.92;101359.81;5030894;28;20216;-62
2024/01/09 11:07:08;;;;;;;4.53;3.60;;;;;;;-2.52;47.22;101365.59;5031440;28;20285;-63
2024/01/09 11:09:39;;;;;;;5.00;3.70;;;;;;;-2.55;47.22;101360.50;5033090;28;20178;-64
2024/01/09 11:12:05;;;;;;;6.30;3.80;;;;;;;-2.48;47.55;101357.28;5054679;28;20232;-63